sensor_id;sensor_type;location;lat;lon;timestamp;temperature;humidity
52739;DHT22;52466;40.122;18.318;2022-07-24T00:02:43;27.30;50.20
52739;DHT22;52466;40.122;18.318;2022-07-24T00:05:50;27.30;50.10
52739;DHT22;52466;40.122;18.318;2022-07-24T00:08:58;27.30;50.10
52739;DHT22;52466;40.122;18.318;2022-07-24T00:12:07;27.30;50.00
52739;DHT22;52466;40.122;18.318;2022-07-24T00:15:15;27.20;50.10
52739;DHT22;52466;40.122;18.318;2022-07-24T00:18:22;27.10;50.40
52739;DHT22;52466;40.122;18.318;2022-07-24T00:21:30;27.00;50.70
52739;DHT22;52466;40.122;18.318;2022-07-24T00:24:38;27.00;50.90
52739;DHT22;52466;40.122;18.318;2022-07-24T00:27:45;26.90;51.20
52739;DHT22;52466;40.122;18.318;2022-07-24T00:30:53;26.90;51.10
52739;DHT22;52466;40.122;18.318;2022-07-24T00:34:01;27.00;51.00
52739;DHT22;52466;40.122;18.318;2022-07-24T00:37:08;26.90;51.20
52739;DHT22;52466;40.122;18.318;2022-07-24T00:40:16;26.90;51.20
52739;DHT22;52466;40.122;18.318;2022-07-24T00:43:24;26.90;51.30
52739;DHT22;52466;40.122;18.318;2022-07-24T00:46:33;26.70;51.70
52739;DHT22;52466;40.122;18.318;2022-07-24T00:49:41;26.70;52.10
52739;DHT22;52466;40.122;18.318;2022-07-24T00:52:49;26.60;52.10
52739;DHT22;52466;40.122;18.318;2022-07-24T00:55:57;26.60;52.10
52739;DHT22;52466;40.122;18.318;2022-07-24T00:59:04;26.60;52.10
52739;DHT22;52466;40.122;18.318;2022-07-24T01:02:12;26.60;52.20
52739;DHT22;52466;40.122;18.318;2022-07-24T01:05:20;26.40;52.60
52739;DHT22;52466;40.122;18.318;2022-07-24T01:08:29;26.30;53.00
52739;DHT22;52466;40.122;18.318;2022-07-24T01:11:38;26.10;53.20
52739;DHT22;52466;40.122;18.318;2022-07-24T01:14:46;26.10;53.40
52739;DHT22;52466;40.122;18.318;2022-07-24T01:17:54;26.10;53.20
52739;DHT22;52466;40.122;18.318;2022-07-24T01:21:03;26.20;53.00
52739;DHT22;52466;40.122;18.318;2022-07-24T01:24:10;26.20;53.20
52739;DHT22;52466;40.122;18.318;2022-07-24T01:27:18;26.00;53.40
52739;DHT22;52466;40.122;18.318;2022-07-24T01:30:26;26.00;53.50
52739;DHT22;52466;40.122;18.318;2022-07-24T01:33:34;26.00;53.50
52739;DHT22;52466;40.122;18.318;2022-07-24T01:36:42;26.00;53.30
52739;DHT22;52466;40.122;18.318;2022-07-24T01:39:50;26.00;53.40
52739;DHT22;52466;40.122;18.318;2022-07-24T01:42:57;26.00;53.40
52739;DHT22;52466;40.122;18.318;2022-07-24T01:46:05;26.00;53.40
52739;DHT22;52466;40.122;18.318;2022-07-24T01:49:13;26.00;53.50
52739;DHT22;52466;40.122;18.318;2022-07-24T01:52:21;26.00;53.60
52739;DHT22;52466;40.122;18.318;2022-07-24T01:55:32;25.90;53.80
52739;DHT22;52466;40.122;18.318;2022-07-24T01:58:40;25.60;54.40
52739;DHT22;52466;40.122;18.318;2022-07-24T02:01:48;25.50;54.90
52739;DHT22;52466;40.122;18.318;2022-07-24T02:04:55;25.40;55.30
52739;DHT22;52466;40.122;18.318;2022-07-24T02:08:03;25.50;55.20
52739;DHT22;52466;40.122;18.318;2022-07-24T02:11:11;25.60;55.20
52739;DHT22;52466;40.122;18.318;2022-07-24T02:14:19;25.70;55.10
52739;DHT22;52466;40.122;18.318;2022-07-24T02:17:27;25.70;55.00
52739;DHT22;52466;40.122;18.318;2022-07-24T02:20:34;25.70;55.00
52739;DHT22;52466;40.122;18.318;2022-07-24T02:23:42;25.50;55.20
52739;DHT22;52466;40.122;18.318;2022-07-24T02:26:50;25.40;55.50
52739;DHT22;52466;40.122;18.318;2022-07-24T02:29:58;25.30;55.80
52739;DHT22;52466;40.122;18.318;2022-07-24T02:33:05;25.30;55.70
52739;DHT22;52466;40.122;18.318;2022-07-24T02:36:13;25.30;55.50
52739;DHT22;52466;40.122;18.318;2022-07-24T02:39:21;25.10;55.70
52739;DHT22;52466;40.122;18.318;2022-07-24T02:42:29;25.00;56.20
52739;DHT22;52466;40.122;18.318;2022-07-24T02:45:36;25.10;56.10
52739;DHT22;52466;40.122;18.318;2022-07-24T02:48:44;25.10;56.10
52739;DHT22;52466;40.122;18.318;2022-07-24T02:51:52;25.00;56.30
52739;DHT22;52466;40.122;18.318;2022-07-24T02:54:59;24.90;56.50
52739;DHT22;52466;40.122;18.318;2022-07-24T02:58:07;25.00;56.50
52739;DHT22;52466;40.122;18.318;2022-07-24T03:01:15;25.00;56.50
52739;DHT22;52466;40.122;18.318;2022-07-24T03:04:22;24.90;56.60
52739;DHT22;52466;40.122;18.318;2022-07-24T03:07:30;24.80;56.80
52739;DHT22;52466;40.122;18.318;2022-07-24T03:10:38;24.90;56.60
52739;DHT22;52466;40.122;18.318;2022-07-24T03:13:46;25.00;56.20
52739;DHT22;52466;40.122;18.318;2022-07-24T03:16:49;25.10;56.00
52739;DHT22;52466;40.122;18.318;2022-07-24T03:19:56;25.10;56.10
52739;DHT22;52466;40.122;18.318;2022-07-24T03:23:04;24.90;56.50
52739;DHT22;52466;40.122;18.318;2022-07-24T03:26:12;24.90;56.60
52739;DHT22;52466;40.122;18.318;2022-07-24T03:29:20;24.90;56.50
52739;DHT22;52466;40.122;18.318;2022-07-24T03:32:28;24.80;56.90
52739;DHT22;52466;40.122;18.318;2022-07-24T03:35:35;24.80;56.90
52739;DHT22;52466;40.122;18.318;2022-07-24T03:38:43;24.70;57.10
52739;DHT22;52466;40.122;18.318;2022-07-24T03:41:51;24.80;57.00
52739;DHT22;52466;40.122;18.318;2022-07-24T03:44:58;24.80;56.90
52739;DHT22;52466;40.122;18.318;2022-07-24T03:48:06;24.80;56.90
52739;DHT22;52466;40.122;18.318;2022-07-24T03:51:14;24.80;57.00
52739;DHT22;52466;40.122;18.318;2022-07-24T03:54:21;24.80;56.90
52739;DHT22;52466;40.122;18.318;2022-07-24T03:57:29;25.00;56.90
52739;DHT22;52466;40.122;18.318;2022-07-24T04:00:37;25.00;56.70
52739;DHT22;52466;40.122;18.318;2022-07-24T04:03:44;25.10;56.50
52739;DHT22;52466;40.122;18.318;2022-07-24T04:06:52;25.10;56.40
52739;DHT22;52466;40.122;18.318;2022-07-24T04:10:00;25.20;56.40
52739;DHT22;52466;40.122;18.318;2022-07-24T04:13:08;25.30;56.30
52739;DHT22;52466;40.122;18.318;2022-07-24T04:16:15;25.30;56.20
52739;DHT22;52466;40.122;18.318;2022-07-24T04:19:23;25.30;56.30
52739;DHT22;52466;40.122;18.318;2022-07-24T04:22:31;25.30;56.40
52739;DHT22;52466;40.122;18.318;2022-07-24T04:25:39;25.50;56.40
52739;DHT22;52466;40.122;18.318;2022-07-24T04:28:47;25.60;56.20
52739;DHT22;52466;40.122;18.318;2022-07-24T04:31:54;25.60;56.30
52739;DHT22;52466;40.122;18.318;2022-07-24T04:35:03;25.70;56.30
52739;DHT22;52466;40.122;18.318;2022-07-24T04:38:11;25.70;56.50
52739;DHT22;52466;40.122;18.318;2022-07-24T04:41:20;25.80;56.60
52739;DHT22;52466;40.122;18.318;2022-07-24T04:44:28;26.00;56.60
52739;DHT22;52466;40.122;18.318;2022-07-24T04:47:36;26.20;56.40
52739;DHT22;52466;40.122;18.318;2022-07-24T04:50:44;26.50;56.00
52739;DHT22;52466;40.122;18.318;2022-07-24T04:53:52;27.00;55.30
52739;DHT22;52466;40.122;18.318;2022-07-24T04:57:00;27.50;54.40
52739;DHT22;52466;40.122;18.318;2022-07-24T05:00:09;28.00;53.60
52739;DHT22;52466;40.122;18.318;2022-07-24T05:03:18;28.50;52.90
52739;DHT22;52466;40.122;18.318;2022-07-24T05:06:26;29.10;51.90
52739;DHT22;52466;40.122;18.318;2022-07-24T05:09:33;29.60;51.30
52739;DHT22;52466;40.122;18.318;2022-07-24T05:12:41;29.90;50.90
52739;DHT22;52466;40.122;18.318;2022-07-24T05:15:49;30.30;50.50
52739;DHT22;52466;40.122;18.318;2022-07-24T05:18:56;30.70;50.00
52739;DHT22;52466;40.122;18.318;2022-07-24T05:22:04;31.40;49.00
52739;DHT22;52466;40.122;18.318;2022-07-24T05:25:12;32.00;48.00
52739;DHT22;52466;40.122;18.318;2022-07-24T05:28:20;32.60;46.90
52739;DHT22;52466;40.122;18.318;2022-07-24T05:31:28;33.40;45.90
52739;DHT22;52466;40.122;18.318;2022-07-24T05:34:36;34.30;44.40
52739;DHT22;52466;40.122;18.318;2022-07-24T05:37:43;35.20;42.90
52739;DHT22;52466;40.122;18.318;2022-07-24T05:40:51;36.40;41.30
52739;DHT22;52466;40.122;18.318;2022-07-24T05:43:59;38.00;39.10
52739;DHT22;52466;40.122;18.318;2022-07-24T05:47:07;39.90;36.30
52739;DHT22;52466;40.122;18.318;2022-07-24T05:50:14;41.80;33.70
52739;DHT22;52466;40.122;18.318;2022-07-24T05:53:23;43.50;31.40
52739;DHT22;52466;40.122;18.318;2022-07-24T05:56:30;45.00;29.50
52739;DHT22;52466;40.122;18.318;2022-07-24T05:59:38;46.30;27.80
52739;DHT22;52466;40.122;18.318;2022-07-24T06:02:46;47.30;26.80
52739;DHT22;52466;40.122;18.318;2022-07-24T06:05:54;48.40;25.20
52739;DHT22;52466;40.122;18.318;2022-07-24T06:09:11;49.10;23.80
52739;DHT22;52466;40.122;18.318;2022-07-24T06:13:57;49.90;22.40
52739;DHT22;52466;40.122;18.318;2022-07-24T06:18:05;50.90;21.40
52739;DHT22;52466;40.122;18.318;2022-07-24T06:21:13;51.40;20.40
52739;DHT22;52466;40.122;18.318;2022-07-24T06:24:21;51.70;19.50
52739;DHT22;52466;40.122;18.318;2022-07-24T06:27:28;51.40;19.10
52739;DHT22;52466;40.122;18.318;2022-07-24T06:30:36;50.30;19.30
52739;DHT22;52466;40.122;18.318;2022-07-24T06:33:44;48.50;19.80
52739;DHT22;52466;40.122;18.318;2022-07-24T06:36:52;47.30;20.40
52739;DHT22;52466;40.122;18.318;2022-07-24T06:39:59;46.00;20.70
52739;DHT22;52466;40.122;18.318;2022-07-24T06:43:07;44.70;21.30
52739;DHT22;52466;40.122;18.318;2022-07-24T06:46:15;44.00;21.50
52739;DHT22;52466;40.122;18.318;2022-07-24T06:49:22;43.30;21.50
52739;DHT22;52466;40.122;18.318;2022-07-24T06:52:32;42.70;21.40
52739;DHT22;52466;40.122;18.318;2022-07-24T06:55:39;42.40;21.10
52739;DHT22;52466;40.122;18.318;2022-07-24T06:58:47;42.20;21.00
52739;DHT22;52466;40.122;18.318;2022-07-24T07:01:55;42.30;20.80
52739;DHT22;52466;40.122;18.318;2022-07-24T07:05:07;42.30;20.80
52739;DHT22;52466;40.122;18.318;2022-07-24T07:08:15;42.40;20.90
52739;DHT22;52466;40.122;18.318;2022-07-24T07:11:22;42.40;21.00
52739;DHT22;52466;40.122;18.318;2022-07-24T07:14:30;42.40;20.90
52739;DHT22;52466;40.122;18.318;2022-07-24T07:17:40;42.40;20.50
52739;DHT22;52466;40.122;18.318;2022-07-24T07:20:48;42.40;20.40
52739;DHT22;52466;40.122;18.318;2022-07-24T07:24:00;42.30;20.70
52739;DHT22;52466;40.122;18.318;2022-07-24T07:27:08;42.20;20.80
52739;DHT22;52466;40.122;18.318;2022-07-24T07:30:16;42.10;20.90
52739;DHT22;52466;40.122;18.318;2022-07-24T07:33:24;42.30;20.90
52739;DHT22;52466;40.122;18.318;2022-07-24T07:36:34;42.20;20.70
52739;DHT22;52466;40.122;18.318;2022-07-24T07:39:42;42.30;20.60
52739;DHT22;52466;40.122;18.318;2022-07-24T07:42:49;42.20;20.70
52739;DHT22;52466;40.122;18.318;2022-07-24T07:46:16;42.20;20.70
52739;DHT22;52466;40.122;18.318;2022-07-24T07:49:26;42.00;20.60
52739;DHT22;52466;40.122;18.318;2022-07-24T07:52:35;41.80;20.60
52739;DHT22;52466;40.122;18.318;2022-07-24T07:55:43;41.60;20.70
52739;DHT22;52466;40.122;18.318;2022-07-24T07:58:51;41.30;20.90
52739;DHT22;52466;40.122;18.318;2022-07-24T08:01:58;41.20;20.90
52739;DHT22;52466;40.122;18.318;2022-07-24T08:05:01;41.10;21.00
52739;DHT22;52466;40.122;18.318;2022-07-24T08:08:09;40.90;21.10
52739;DHT22;52466;40.122;18.318;2022-07-24T08:11:16;40.60;21.40
52739;DHT22;52466;40.122;18.318;2022-07-24T08:14:24;40.50;21.50
52739;DHT22;52466;40.122;18.318;2022-07-24T08:17:32;40.50;21.50
52739;DHT22;52466;40.122;18.318;2022-07-24T08:20:40;40.30;21.10
52739;DHT22;52466;40.122;18.318;2022-07-24T08:23:47;40.20;21.00
52739;DHT22;52466;40.122;18.318;2022-07-24T08:26:56;40.00;21.20
52739;DHT22;52466;40.122;18.318;2022-07-24T08:30:05;39.70;21.40
52739;DHT22;52466;40.122;18.318;2022-07-24T08:33:13;39.70;21.60
52739;DHT22;52466;40.122;18.318;2022-07-24T08:36:21;39.50;21.60
52739;DHT22;52466;40.122;18.318;2022-07-24T08:39:29;39.40;21.70
52739;DHT22;52466;40.122;18.318;2022-07-24T08:42:37;39.30;21.80
52739;DHT22;52466;40.122;18.318;2022-07-24T08:45:44;39.30;21.60
52739;DHT22;52466;40.122;18.318;2022-07-24T08:48:52;39.20;21.40
52739;DHT22;52466;40.122;18.318;2022-07-24T08:52:02;39.00;21.30
52739;DHT22;52466;40.122;18.318;2022-07-24T08:55:10;38.90;21.40
52739;DHT22;52466;40.122;18.318;2022-07-24T08:58:18;38.80;21.30
52739;DHT22;52466;40.122;18.318;2022-07-24T09:01:26;38.80;21.20
52739;DHT22;52466;40.122;18.318;2022-07-24T09:04:38;38.70;21.30
52739;DHT22;52466;40.122;18.318;2022-07-24T09:07:46;38.70;21.30
52739;DHT22;52466;40.122;18.318;2022-07-24T09:11:00;38.70;21.80
52739;DHT22;52466;40.122;18.318;2022-07-24T09:14:10;38.50;22.50
52739;DHT22;52466;40.122;18.318;2022-07-24T09:18:07;38.40;22.80
52739;DHT22;52466;40.122;18.318;2022-07-24T09:21:15;38.30;23.10
52739;DHT22;52466;40.122;18.318;2022-07-24T09:24:23;38.40;23.10
52739;DHT22;52466;40.122;18.318;2022-07-24T09:27:32;38.40;23.20
52739;DHT22;52466;40.122;18.318;2022-07-24T09:30:43;38.50;23.20
52739;DHT22;52466;40.122;18.318;2022-07-24T09:33:51;38.40;23.50
52739;DHT22;52466;40.122;18.318;2022-07-24T09:37:02;38.40;23.70
52739;DHT22;52466;40.122;18.318;2022-07-24T09:40:10;38.50;23.70
52739;DHT22;52466;40.122;18.318;2022-07-24T09:43:32;38.50;23.50
52739;DHT22;52466;40.122;18.318;2022-07-24T09:46:46;38.40;23.30
52739;DHT22;52466;40.122;18.318;2022-07-24T09:50:13;38.40;23.00
52739;DHT22;52466;40.122;18.318;2022-07-24T09:53:23;38.40;23.00
52739;DHT22;52466;40.122;18.318;2022-07-24T09:56:32;38.40;23.10
52739;DHT22;52466;40.122;18.318;2022-07-24T09:59:40;38.40;23.00
52739;DHT22;52466;40.122;18.318;2022-07-24T10:02:49;38.40;22.90
52739;DHT22;52466;40.122;18.318;2022-07-24T10:06:04;38.40;22.40
52739;DHT22;52466;40.122;18.318;2022-07-24T10:09:12;38.30;22.40
52739;DHT22;52466;40.122;18.318;2022-07-24T10:12:22;38.30;22.30
52739;DHT22;52466;40.122;18.318;2022-07-24T10:15:33;38.40;22.10
52739;DHT22;52466;40.122;18.318;2022-07-24T10:22:09;38.30;21.70
52739;DHT22;52466;40.122;18.318;2022-07-24T10:25:19;38.40;21.70
52739;DHT22;52466;40.122;18.318;2022-07-24T10:28:40;38.50;21.60
52739;DHT22;52466;40.122;18.318;2022-07-24T10:31:51;38.50;21.40
52739;DHT22;52466;40.122;18.318;2022-07-24T10:38:33;38.50;21.40
52739;DHT22;52466;40.122;18.318;2022-07-24T10:41:43;38.50;21.30
52739;DHT22;52466;40.122;18.318;2022-07-24T10:45:17;38.50;21.10
52739;DHT22;52466;40.122;18.318;2022-07-24T10:48:30;38.40;23.80
52739;DHT22;52466;40.122;18.318;2022-07-24T10:51:57;38.20;29.10
52739;DHT22;52466;40.122;18.318;2022-07-24T10:55:24;38.00;30.70
52739;DHT22;52466;40.122;18.318;2022-07-24T11:02:25;37.70;30.70
52739;DHT22;52466;40.122;18.318;2022-07-24T11:05:38;37.60;31.50
52739;DHT22;52466;40.122;18.318;2022-07-24T11:08:49;37.50;31.50
52739;DHT22;52466;40.122;18.318;2022-07-24T11:15:08;37.30;31.40
52739;DHT22;52466;40.122;18.318;2022-07-24T11:18:34;37.30;31.50
52739;DHT22;52466;40.122;18.318;2022-07-24T11:21:44;37.30;31.20
52739;DHT22;52466;40.122;18.318;2022-07-24T11:25:25;37.40;30.90
52739;DHT22;52466;40.122;18.318;2022-07-24T11:28:33;37.40;31.00
52739;DHT22;52466;40.122;18.318;2022-07-24T11:31:46;37.30;30.90
52739;DHT22;52466;40.122;18.318;2022-07-24T11:34:54;37.30;30.50
52739;DHT22;52466;40.122;18.318;2022-07-24T11:38:03;37.30;30.40
52739;DHT22;52466;40.122;18.318;2022-07-24T11:41:11;37.20;30.30
52739;DHT22;52466;40.122;18.318;2022-07-24T11:44:28;37.30;30.40
52739;DHT22;52466;40.122;18.318;2022-07-24T11:47:36;37.30;30.10
52739;DHT22;52466;40.122;18.318;2022-07-24T11:50:43;37.30;29.90
52739;DHT22;52466;40.122;18.318;2022-07-24T11:53:51;37.30;29.80
52739;DHT22;52466;40.122;18.318;2022-07-24T11:56:59;37.40;29.60
52739;DHT22;52466;40.122;18.318;2022-07-24T12:00:12;37.40;29.50
52739;DHT22;52466;40.122;18.318;2022-07-24T12:03:23;37.30;29.40
52739;DHT22;52466;40.122;18.318;2022-07-24T12:06:31;37.30;29.20
52739;DHT22;52466;40.122;18.318;2022-07-24T12:09:59;37.40;29.20
52739;DHT22;52466;40.122;18.318;2022-07-24T12:13:07;37.50;29.10
52739;DHT22;52466;40.122;18.318;2022-07-24T12:16:25;37.50;28.70
52739;DHT22;52466;40.122;18.318;2022-07-24T12:19:32;37.60;28.60
52739;DHT22;52466;40.122;18.318;2022-07-24T12:22:40;37.70;28.70
52739;DHT22;52466;40.122;18.318;2022-07-24T12:25:48;37.80;28.50
52739;DHT22;52466;40.122;18.318;2022-07-24T12:29:09;37.70;28.50
52739;DHT22;52466;40.122;18.318;2022-07-24T12:32:18;37.80;28.60
52739;DHT22;52466;40.122;18.318;2022-07-24T12:35:27;37.70;28.60
52739;DHT22;52466;40.122;18.318;2022-07-24T12:38:37;37.80;28.40
52739;DHT22;52466;40.122;18.318;2022-07-24T12:41:46;37.80;28.20
52739;DHT22;52466;40.122;18.318;2022-07-24T12:45:08;37.70;28.40
52739;DHT22;52466;40.122;18.318;2022-07-24T12:48:21;37.80;28.30
52739;DHT22;52466;40.122;18.318;2022-07-24T12:51:48;37.80;27.90
52739;DHT22;52466;40.122;18.318;2022-07-24T12:54:56;37.80;27.70
52739;DHT22;52466;40.122;18.318;2022-07-24T12:58:04;37.70;27.30
52739;DHT22;52466;40.122;18.318;2022-07-24T13:01:14;37.80;27.10
52739;DHT22;52466;40.122;18.318;2022-07-24T13:04:24;37.70;26.70
52739;DHT22;52466;40.122;18.318;2022-07-24T13:07:32;37.70;26.70
52739;DHT22;52466;40.122;18.318;2022-07-24T13:10:35;37.70;26.50
52739;DHT22;52466;40.122;18.318;2022-07-24T13:13:43;37.70;26.50
52739;DHT22;52466;40.122;18.318;2022-07-24T13:16:51;37.70;26.30
52739;DHT22;52466;40.122;18.318;2022-07-24T13:20:00;37.70;26.30
52739;DHT22;52466;40.122;18.318;2022-07-24T13:23:09;37.60;26.60
52739;DHT22;52466;40.122;18.318;2022-07-24T13:26:17;37.70;26.70
52739;DHT22;52466;40.122;18.318;2022-07-24T13:29:25;37.70;26.50
52739;DHT22;52466;40.122;18.318;2022-07-24T13:32:33;37.80;26.10
52739;DHT22;52466;40.122;18.318;2022-07-24T13:35:41;37.70;26.00
52739;DHT22;52466;40.122;18.318;2022-07-24T13:38:48;37.60;26.10
52739;DHT22;52466;40.122;18.318;2022-07-24T13:41:56;37.60;26.10
52739;DHT22;52466;40.122;18.318;2022-07-24T13:45:04;37.60;26.20
52739;DHT22;52466;40.122;18.318;2022-07-24T13:48:12;37.50;26.10
52739;DHT22;52466;40.122;18.318;2022-07-24T13:51:20;37.50;26.00
52739;DHT22;52466;40.122;18.318;2022-07-24T13:54:28;37.40;26.10
52739;DHT22;52466;40.122;18.318;2022-07-24T13:57:35;37.30;26.30
52739;DHT22;52466;40.122;18.318;2022-07-24T14:00:43;37.20;26.40
52739;DHT22;52466;40.122;18.318;2022-07-24T14:03:51;37.20;26.50
52739;DHT22;52466;40.122;18.318;2022-07-24T14:06:59;37.30;26.40
52739;DHT22;52466;40.122;18.318;2022-07-24T14:10:07;37.30;26.40
52739;DHT22;52466;40.122;18.318;2022-07-24T14:13:15;37.30;26.20
52739;DHT22;52466;40.122;18.318;2022-07-24T14:16:23;37.40;26.20
52739;DHT22;52466;40.122;18.318;2022-07-24T14:19:32;37.40;26.20
52739;DHT22;52466;40.122;18.318;2022-07-24T14:22:41;37.40;26.20
52739;DHT22;52466;40.122;18.318;2022-07-24T14:25:49;37.40;26.10
52739;DHT22;52466;40.122;18.318;2022-07-24T14:28:56;37.30;26.10
52739;DHT22;52466;40.122;18.318;2022-07-24T14:32:04;37.40;26.20
52739;DHT22;52466;40.122;18.318;2022-07-24T14:35:12;37.40;26.10
52739;DHT22;52466;40.122;18.318;2022-07-24T14:38:20;37.40;26.00
52739;DHT22;52466;40.122;18.318;2022-07-24T14:41:27;37.30;25.90
52739;DHT22;52466;40.122;18.318;2022-07-24T14:44:35;37.30;25.80
52739;DHT22;52466;40.122;18.318;2022-07-24T14:47:43;37.30;25.70
52739;DHT22;52466;40.122;18.318;2022-07-24T14:50:51;37.30;25.60
52739;DHT22;52466;40.122;18.318;2022-07-24T14:53:58;37.20;25.60
52739;DHT22;52466;40.122;18.318;2022-07-24T14:57:01;37.20;25.60
52739;DHT22;52466;40.122;18.318;2022-07-24T15:00:09;37.10;25.50
52739;DHT22;52466;40.122;18.318;2022-07-24T15:03:18;37.20;25.40
52739;DHT22;52466;40.122;18.318;2022-07-24T15:06:25;37.20;25.10
52739;DHT22;52466;40.122;18.318;2022-07-24T15:09:33;37.10;25.20
52739;DHT22;52466;40.122;18.318;2022-07-24T15:12:41;37.20;25.30
52739;DHT22;52466;40.122;18.318;2022-07-24T15:15:49;37.20;25.30
52739;DHT22;52466;40.122;18.318;2022-07-24T15:18:57;37.20;25.10
52739;DHT22;52466;40.122;18.318;2022-07-24T15:22:05;37.10;25.10
52739;DHT22;52466;40.122;18.318;2022-07-24T15:25:13;37.00;25.20
52739;DHT22;52466;40.122;18.318;2022-07-24T15:28:20;37.00;25.10
52739;DHT22;52466;40.122;18.318;2022-07-24T15:31:28;37.00;25.10
52739;DHT22;52466;40.122;18.318;2022-07-24T15:34:36;36.80;25.30
52739;DHT22;52466;40.122;18.318;2022-07-24T15:37:43;36.70;25.40
52739;DHT22;52466;40.122;18.318;2022-07-24T15:40:51;36.70;25.40
52739;DHT22;52466;40.122;18.318;2022-07-24T15:43:59;36.70;25.40
52739;DHT22;52466;40.122;18.318;2022-07-24T15:47:07;36.70;25.40
52739;DHT22;52466;40.122;18.318;2022-07-24T15:50:15;36.70;25.50
52739;DHT22;52466;40.122;18.318;2022-07-24T15:53:22;36.60;25.50
52739;DHT22;52466;40.122;18.318;2022-07-24T15:56:25;36.60;25.60
52739;DHT22;52466;40.122;18.318;2022-07-24T15:59:33;36.60;25.50
52739;DHT22;52466;40.122;18.318;2022-07-24T16:02:41;36.60;25.40
52739;DHT22;52466;40.122;18.318;2022-07-24T16:05:48;36.50;25.30
52739;DHT22;52466;40.122;18.318;2022-07-24T16:08:56;36.40;25.20
52739;DHT22;52466;40.122;18.318;2022-07-24T16:12:04;36.40;25.10
52739;DHT22;52466;40.122;18.318;2022-07-24T16:15:12;36.40;25.20
52739;DHT22;52466;40.122;18.318;2022-07-24T16:18:20;36.40;25.20
52739;DHT22;52466;40.122;18.318;2022-07-24T16:21:32;36.40;25.20
52739;DHT22;52466;40.122;18.318;2022-07-24T16:24:41;36.40;25.30
52739;DHT22;52466;40.122;18.318;2022-07-24T16:27:48;36.30;25.60
52739;DHT22;52466;40.122;18.318;2022-07-24T16:30:56;36.20;25.90
52739;DHT22;52466;40.122;18.318;2022-07-24T16:34:04;36.20;26.00
52739;DHT22;52466;40.122;18.318;2022-07-24T16:37:12;36.10;25.90
52739;DHT22;52466;40.122;18.318;2022-07-24T16:40:19;36.10;25.80
52739;DHT22;52466;40.122;18.318;2022-07-24T16:43:27;36.00;26.00
52739;DHT22;52466;40.122;18.318;2022-07-24T16:46:35;35.90;26.10
52739;DHT22;52466;40.122;18.318;2022-07-24T16:49:43;35.80;26.20
52739;DHT22;52466;40.122;18.318;2022-07-24T16:52:50;35.70;26.30
52739;DHT22;52466;40.122;18.318;2022-07-24T16:55:58;35.70;26.60
52739;DHT22;52466;40.122;18.318;2022-07-24T16:59:06;35.50;26.70
52739;DHT22;52466;40.122;18.318;2022-07-24T17:02:14;35.50;26.80
52739;DHT22;52466;40.122;18.318;2022-07-24T17:05:22;35.30;27.20
52739;DHT22;52466;40.122;18.318;2022-07-24T17:08:30;35.20;28.00
52739;DHT22;52466;40.122;18.318;2022-07-24T17:11:38;35.00;28.60
52739;DHT22;52466;40.122;18.318;2022-07-24T17:14:46;35.00;29.10
52739;DHT22;52466;40.122;18.318;2022-07-24T17:17:54;34.90;29.60
52739;DHT22;52466;40.122;18.318;2022-07-24T17:21:05;34.80;30.10
52739;DHT22;52466;40.122;18.318;2022-07-24T17:24:13;34.70;30.40
52739;DHT22;52466;40.122;18.318;2022-07-24T17:27:19;34.70;30.70
52739;DHT22;52466;40.122;18.318;2022-07-24T17:30:27;34.60;30.90
52739;DHT22;52466;40.122;18.318;2022-07-24T17:33:35;34.50;31.10
52739;DHT22;52466;40.122;18.318;2022-07-24T17:36:43;34.40;31.30
52739;DHT22;52466;40.122;18.318;2022-07-24T17:39:52;34.20;31.50
52739;DHT22;52466;40.122;18.318;2022-07-24T17:43:00;34.10;31.60
52739;DHT22;52466;40.122;18.318;2022-07-24T17:46:07;34.10;31.70
52739;DHT22;52466;40.122;18.318;2022-07-24T17:49:16;34.00;31.80
52739;DHT22;52466;40.122;18.318;2022-07-24T17:52:24;34.00;32.00
52739;DHT22;52466;40.122;18.318;2022-07-24T17:55:32;33.90;32.00
52739;DHT22;52466;40.122;18.318;2022-07-24T17:58:39;33.80;32.10
52739;DHT22;52466;40.122;18.318;2022-07-24T18:01:47;33.70;32.30
52739;DHT22;52466;40.122;18.318;2022-07-24T18:05:26;33.60;32.50
52739;DHT22;52466;40.122;18.318;2022-07-24T18:08:34;33.50;32.90
52739;DHT22;52466;40.122;18.318;2022-07-24T18:11:41;33.50;33.00
52739;DHT22;52466;40.122;18.318;2022-07-24T18:14:49;33.40;33.10
52739;DHT22;52466;40.122;18.318;2022-07-24T18:17:59;33.30;33.30
52739;DHT22;52466;40.122;18.318;2022-07-24T18:21:07;33.20;33.50
52739;DHT22;52466;40.122;18.318;2022-07-24T18:24:15;33.10;33.80
52739;DHT22;52466;40.122;18.318;2022-07-24T18:27:23;33.00;33.90
52739;DHT22;52466;40.122;18.318;2022-07-24T18:30:31;33.00;34.10
52739;DHT22;52466;40.122;18.318;2022-07-24T18:33:38;33.00;34.20
52739;DHT22;52466;40.122;18.318;2022-07-24T18:36:46;32.90;34.30
52739;DHT22;52466;40.122;18.318;2022-07-24T18:39:54;32.70;34.50
52739;DHT22;52466;40.122;18.318;2022-07-24T18:43:02;32.60;34.60
52739;DHT22;52466;40.122;18.318;2022-07-24T18:46:09;32.60;34.70
52739;DHT22;52466;40.122;18.318;2022-07-24T18:49:17;32.50;34.70
52739;DHT22;52466;40.122;18.318;2022-07-24T18:52:26;32.40;35.10
52739;DHT22;52466;40.122;18.318;2022-07-24T18:55:34;32.30;35.30
52739;DHT22;52466;40.122;18.318;2022-07-24T18:58:41;32.10;35.50
52739;DHT22;52466;40.122;18.318;2022-07-24T19:01:50;32.10;35.90
52739;DHT22;52466;40.122;18.318;2022-07-24T19:04:58;32.00;36.40
52739;DHT22;52466;40.122;18.318;2022-07-24T19:08:06;32.00;36.60
52739;DHT22;52466;40.122;18.318;2022-07-24T19:11:14;32.00;36.70
52739;DHT22;52466;40.122;18.318;2022-07-24T19:14:22;31.90;36.40
52739;DHT22;52466;40.122;18.318;2022-07-24T19:17:29;31.90;36.40
52739;DHT22;52466;40.122;18.318;2022-07-24T19:20:37;31.80;36.10
52739;DHT22;52466;40.122;18.318;2022-07-24T19:23:45;31.70;36.10
52739;DHT22;52466;40.122;18.318;2022-07-24T19:26:52;31.60;35.70
52739;DHT22;52466;40.122;18.318;2022-07-24T19:30:01;31.50;35.80
52739;DHT22;52466;40.122;18.318;2022-07-24T19:33:09;31.40;36.10
52739;DHT22;52466;40.122;18.318;2022-07-24T19:36:17;31.30;36.90
52739;DHT22;52466;40.122;18.318;2022-07-24T19:39:25;31.20;37.00
52739;DHT22;52466;40.122;18.318;2022-07-24T19:42:32;31.20;36.40
52739;DHT22;52466;40.122;18.318;2022-07-24T19:45:40;31.10;35.90
52739;DHT22;52466;40.122;18.318;2022-07-24T19:48:48;31.10;35.50
52739;DHT22;52466;40.122;18.318;2022-07-24T19:51:59;31.00;36.00